sensor_id;sensor_type;location;lat;lon;timestamp;P1;durP1;ratioP1;P2;durP2;ratioP2
61393;SDS011;48555;50.952;-0.120;2023-11-19T00:02:08;31.38;;;5.38;;
61393;SDS011;48555;50.952;-0.120;2023-11-19T00:04:37;29.75;;;4.80;;
61393;SDS011;48555;50.952;-0.120;2023-11-19T00:07:04;26.75;;;4.63;;
61393;SDS011;48555;50.952;-0.120;2023-11-19T00:09:31;23.70;;;5.40;;
61393;SDS011;48555;50.952;-0.120;2023-11-19T00:11:57;30.83;;;5.65;;
61393;SDS011;48555;50.952;-0.120;2023-11-19T00:14:22;24.45;;;4.55;;
61393;SDS011;48555;50.952;-0.120;2023-11-19T00:16:49;29.58;;;5.05;;
61393;SDS011;48555;50.952;-0.120;2023-11-19T00:19:16;28.77;;;5.63;;
61393;SDS011;48555;50.952;-0.120;2023-11-19T00:21:41;33.92;;;5.32;;
61393;SDS011;48555;50.952;-0.120;2023-11-19T00:24:07;31.52;;;4.95;;
61393;SDS011;48555;50.952;-0.120;2023-11-19T00:26:33;29.85;;;5.47;;
61393;SDS011;48555;50.952;-0.120;2023-11-19T00:28:58;30.40;;;6.05;;
61393;SDS011;48555;50.952;-0.120;2023-11-19T00:31:24;30.52;;;5.00;;
61393;SDS011;48555;50.952;-0.120;2023-11-19T00:33:51;28.48;;;4.70;;
61393;SDS011;48555;50.952;-0.120;2023-11-19T00:36:16;33.25;;;6.10;;
61393;SDS011;48555;50.952;-0.120;2023-11-19T00:38:42;29.48;;;5.20;;
61393;SDS011;48555;50.952;-0.120;2023-11-19T00:41:07;27.52;;;5.22;;
61393;SDS011;48555;50.952;-0.120;2023-11-19T00:43:32;29.02;;;5.25;;
61393;SDS011;48555;50.952;-0.120;2023-11-19T00:45:58;30.45;;;5.25;;
61393;SDS011;48555;50.952;-0.120;2023-11-19T00:48:23;22.63;;;4.45;;
61393;SDS011;48555;50.952;-0.120;2023-11-19T00:50:48;30.10;;;5.78;;
61393;SDS011;48555;50.952;-0.120;2023-11-19T00:53:14;33.25;;;5.32;;
61393;SDS011;48555;50.952;-0.120;2023-11-19T00:55:39;34.15;;;5.97;;
61393;SDS011;48555;50.952;-0.120;2023-11-19T00:58:04;31.75;;;5.13;;
61393;SDS011;48555;50.952;-0.120;2023-11-19T01:00:30;28.20;;;5.55;;
61393;SDS011;48555;50.952;-0.120;2023-11-19T01:02:57;31.17;;;5.07;;
61393;SDS011;48555;50.952;-0.120;2023-11-19T01:05:22;30.17;;;5.35;;
61393;SDS011;48555;50.952;-0.120;2023-11-19T01:07:48;34.40;;;6.10;;
61393;SDS011;48555;50.952;-0.120;2023-11-19T01:10:13;24.33;;;4.95;;
61393;SDS011;48555;50.952;-0.120;2023-11-19T01:12:41;26.17;;;5.13;;
61393;SDS011;48555;50.952;-0.120;2023-11-19T01:15:07;31.30;;;5.72;;
61393;SDS011;48555;50.952;-0.120;2023-11-19T01:17:32;30.55;;;4.93;;
61393;SDS011;48555;50.952;-0.120;2023-11-19T01:19:58;26.55;;;4.95;;
61393;SDS011;48555;50.952;-0.120;2023-11-19T01:22:23;30.73;;;5.55;;
61393;SDS011;48555;50.952;-0.120;2023-11-19T01:24:49;30.02;;;4.97;;
61393;SDS011;48555;50.952;-0.120;2023-11-19T01:27:14;32.53;;;4.88;;
61393;SDS011;48555;50.952;-0.120;2023-11-19T01:29:40;27.45;;;4.97;;
61393;SDS011;48555;50.952;-0.120;2023-11-19T01:32:05;30.05;;;5.28;;
61393;SDS011;48555;50.952;-0.120;2023-11-19T01:34:31;21.23;;;4.15;;
61393;SDS011;48555;50.952;-0.120;2023-11-19T01:36:56;25.50;;;4.78;;
61393;SDS011;48555;50.952;-0.120;2023-11-19T01:39:21;31.52;;;5.30;;
61393;SDS011;48555;50.952;-0.120;2023-11-19T01:41:47;30.20;;;5.25;;
61393;SDS011;48555;50.952;-0.120;2023-11-19T01:44:12;32.55;;;4.95;;
61393;SDS011;48555;50.952;-0.120;2023-11-19T01:46:38;23.75;;;3.75;;
61393;SDS011;48555;50.952;-0.120;2023-11-19T01:49:06;25.30;;;5.15;;
61393;SDS011;48555;50.952;-0.120;2023-11-19T01:51:33;25.48;;;4.90;;
61393;SDS011;48555;50.952;-0.120;2023-11-19T01:53:59;29.95;;;4.93;;
61393;SDS011;48555;50.952;-0.120;2023-11-19T01:56:26;30.42;;;5.80;;
61393;SDS011;48555;50.952;-0.120;2023-11-19T01:58:53;27.80;;;4.55;;
61393;SDS011;48555;50.952;-0.120;2023-11-19T02:01:19;29.58;;;4.60;;
61393;SDS011;48555;50.952;-0.120;2023-11-19T02:03:45;25.10;;;4.68;;
61393;SDS011;48555;50.952;-0.120;2023-11-19T02:06:12;24.90;;;4.72;;
61393;SDS011;48555;50.952;-0.120;2023-11-19T02:08:38;23.42;;;5.38;;
61393;SDS011;48555;50.952;-0.120;2023-11-19T02:11:04;22.17;;;4.43;;
61393;SDS011;48555;50.952;-0.120;2023-11-19T02:13:31;28.83;;;4.85;;
61393;SDS011;48555;50.952;-0.120;2023-11-19T02:15:57;25.73;;;4.50;;
61393;SDS011;48555;50.952;-0.120;2023-11-19T02:18:24;24.30;;;4.68;;
61393;SDS011;48555;50.952;-0.120;2023-11-19T02:20:53;24.15;;;4.97;;
61393;SDS011;48555;50.952;-0.120;2023-11-19T02:23:19;29.15;;;4.97;;
61393;SDS011;48555;50.952;-0.120;2023-11-19T02:25:53;22.58;;;4.63;;
61393;SDS011;48555;50.952;-0.120;2023-11-19T02:28:25;26.05;;;5.05;;
61393;SDS011;48555;50.952;-0.120;2023-11-19T02:30:51;27.40;;;5.13;;
61393;SDS011;48555;50.952;-0.120;2023-11-19T02:33:16;28.00;;;4.78;;
61393;SDS011;48555;50.952;-0.120;2023-11-19T02:35:41;30.20;;;5.05;;
61393;SDS011;48555;50.952;-0.120;2023-11-19T02:38:07;22.42;;;4.35;;
61393;SDS011;48555;50.952;-0.120;2023-11-19T02:40:33;30.50;;;4.97;;
61393;SDS011;48555;50.952;-0.120;2023-11-19T02:42:58;28.48;;;5.05;;
61393;SDS011;48555;50.952;-0.120;2023-11-19T02:45:24;29.35;;;4.50;;
61393;SDS011;48555;50.952;-0.120;2023-11-19T02:47:50;30.08;;;5.13;;
61393;SDS011;48555;50.952;-0.120;2023-11-19T02:50:17;29.60;;;5.28;;
61393;SDS011;48555;50.952;-0.120;2023-11-19T02:52:49;29.90;;;4.72;;
61393;SDS011;48555;50.952;-0.120;2023-11-19T02:55:16;25.65;;;4.35;;
61393;SDS011;48555;50.952;-0.120;2023-11-19T02:57:43;27.02;;;4.32;;
61393;SDS011;48555;50.952;-0.120;2023-11-19T03:00:16;25.85;;;5.00;;
61393;SDS011;48555;50.952;-0.120;2023-11-19T03:02:43;31.65;;;5.05;;
61393;SDS011;48555;50.952;-0.120;2023-11-19T03:05:11;27.02;;;4.57;;
61393;SDS011;48555;50.952;-0.120;2023-11-19T03:07:39;25.75;;;5.43;;
61393;SDS011;48555;50.952;-0.120;2023-11-19T03:10:09;26.25;;;5.28;;
61393;SDS011;48555;50.952;-0.120;2023-11-19T03:12:37;28.50;;;4.72;;
61393;SDS011;48555;50.952;-0.120;2023-11-19T03:15:03;27.25;;;4.28;;
61393;SDS011;48555;50.952;-0.120;2023-11-19T03:17:28;34.38;;;5.20;;
61393;SDS011;48555;50.952;-0.120;2023-11-19T03:19:54;25.17;;;5.20;;
61393;SDS011;48555;50.952;-0.120;2023-11-19T03:22:19;25.00;;;5.53;;
61393;SDS011;48555;50.952;-0.120;2023-11-19T03:24:45;30.90;;;4.57;;
61393;SDS011;48555;50.952;-0.120;2023-11-19T03:27:11;23.90;;;4.53;;
61393;SDS011;48555;50.952;-0.120;2023-11-19T03:29:36;23.98;;;4.80;;
61393;SDS011;48555;50.952;-0.120;2023-11-19T03:32:03;25.15;;;4.25;;
61393;SDS011;48555;50.952;-0.120;2023-11-19T03:34:29;28.88;;;4.60;;
61393;SDS011;48555;50.952;-0.120;2023-11-19T03:36:54;22.42;;;4.03;;
61393;SDS011;48555;50.952;-0.120;2023-11-19T03:39:20;25.27;;;4.97;;
61393;SDS011;48555;50.952;-0.120;2023-11-19T03:41:49;18.92;;;4.10;;
61393;SDS011;48555;50.952;-0.120;2023-11-19T03:44:15;29.27;;;5.00;;
61393;SDS011;48555;50.952;-0.120;2023-11-19T03:46:40;35.17;;;5.65;;
61393;SDS011;48555;50.952;-0.120;2023-11-19T03:49:05;25.15;;;4.70;;
61393;SDS011;48555;50.952;-0.120;2023-11-19T03:51:32;25.15;;;3.90;;
61393;SDS011;48555;50.952;-0.120;2023-11-19T03:53:57;21.48;;;3.65;;
61393;SDS011;48555;50.952;-0.120;2023-11-19T03:56:24;25.95;;;3.92;;
61393;SDS011;48555;50.952;-0.120;2023-11-19T03:58:49;20.88;;;3.90;;
61393;SDS011;48555;50.952;-0.120;2023-11-19T04:01:14;29.25;;;4.40;;
61393;SDS011;48555;50.952;-0.120;2023-11-19T04:03:40;23.25;;;4.68;;
61393;SDS011;48555;50.952;-0.120;2023-11-19T04:06:05;29.25;;;5.00;;
61393;SDS011;48555;50.952;-0.120;2023-11-19T04:08:31;25.15;;;5.32;;
61393;SDS011;48555;50.952;-0.120;2023-11-19T04:10:56;25.83;;;4.32;;
61393;SDS011;48555;50.952;-0.120;2023-11-19T04:13:21;26.38;;;5.07;;
61393;SDS011;48555;50.952;-0.120;2023-11-19T04:15:49;23.42;;;4.18;;
61393;SDS011;48555;50.952;-0.120;2023-11-19T04:18:15;25.35;;;4.72;;
61393;SDS011;48555;50.952;-0.120;2023-11-19T04:20:40;29.10;;;4.22;;
61393;SDS011;48555;50.952;-0.120;2023-11-19T04:23:07;23.67;;;4.57;;
61393;SDS011;48555;50.952;-0.120;2023-11-19T04:25:32;31.30;;;4.95;;
61393;SDS011;48555;50.952;-0.120;2023-11-19T04:27:58;27.73;;;4.68;;
61393;SDS011;48555;50.952;-0.120;2023-11-19T04:30:23;31.90;;;5.20;;
61393;SDS011;48555;50.952;-0.120;2023-11-19T04:32:48;27.33;;;4.60;;
61393;SDS011;48555;50.952;-0.120;2023-11-19T04:35:14;26.77;;;4.57;;
61393;SDS011;48555;50.952;-0.120;2023-11-19T04:37:39;26.52;;;5.00;;
61393;SDS011;48555;50.952;-0.120;2023-11-19T04:40:06;29.42;;;5.05;;
61393;SDS011;48555;50.952;-0.120;2023-11-19T04:42:32;28.98;;;4.65;;
61393;SDS011;48555;50.952;-0.120;2023-11-19T04:44:57;27.98;;;4.43;;
61393;SDS011;48555;50.952;-0.120;2023-11-19T04:47:23;29.02;;;5.28;;
61393;SDS011;48555;50.952;-0.120;2023-11-19T04:49:48;27.48;;;4.50;;
61393;SDS011;48555;50.952;-0.120;2023-11-19T04:52:13;24.48;;;5.28;;
61393;SDS011;48555;50.952;-0.120;2023-11-19T04:54:42;30.25;;;4.55;;
61393;SDS011;48555;50.952;-0.120;2023-11-19T04:57:08;27.38;;;4.60;;
61393;SDS011;48555;50.952;-0.120;2023-11-19T04:59:37;27.38;;;5.70;;
61393;SDS011;48555;50.952;-0.120;2023-11-19T05:02:03;27.70;;;4.47;;
61393;SDS011;48555;50.952;-0.120;2023-11-19T05:04:29;25.55;;;4.20;;
61393;SDS011;48555;50.952;-0.120;2023-11-19T05:06:54;22.13;;;4.10;;
61393;SDS011;48555;50.952;-0.120;2023-11-19T05:09:20;26.80;;;4.88;;
61393;SDS011;48555;50.952;-0.120;2023-11-19T05:11:45;32.47;;;4.70;;
61393;SDS011;48555;50.952;-0.120;2023-11-19T05:14:11;28.58;;;4.45;;
61393;SDS011;48555;50.952;-0.120;2023-11-19T05:16:38;28.83;;;4.15;;
61393;SDS011;48555;50.952;-0.120;2023-11-19T05:19:04;23.10;;;5.05;;
61393;SDS011;48555;50.952;-0.120;2023-11-19T05:21:30;26.15;;;4.40;;
61393;SDS011;48555;50.952;-0.120;2023-11-19T05:23:55;25.13;;;4.38;;
61393;SDS011;48555;50.952;-0.120;2023-11-19T05:26:22;27.80;;;5.05;;
61393;SDS011;48555;50.952;-0.120;2023-11-19T05:28:48;33.72;;;4.95;;
61393;SDS011;48555;50.952;-0.120;2023-11-19T05:31:15;24.83;;;4.68;;
61393;SDS011;48555;50.952;-0.120;2023-11-19T05:33:41;28.00;;;5.13;;
61393;SDS011;48555;50.952;-0.120;2023-11-19T05:36:06;21.52;;;5.05;;
61393;SDS011;48555;50.952;-0.120;2023-11-19T05:38:33;25.33;;;4.85;;
61393;SDS011;48555;50.952;-0.120;2023-11-19T05:40:59;24.88;;;4.55;;
61393;SDS011;48555;50.952;-0.120;2023-11-19T05:43:24;28.02;;;5.22;;
61393;SDS011;48555;50.952;-0.120;2023-11-19T05:45:49;23.02;;;4.40;;
61393;SDS011;48555;50.952;-0.120;2023-11-19T05:48:15;20.35;;;4.50;;
61393;SDS011;48555;50.952;-0.120;2023-11-19T05:50:41;27.52;;;4.40;;
61393;SDS011;48555;50.952;-0.120;2023-11-19T05:53:07;22.15;;;3.80;;
61393;SDS011;48555;50.952;-0.120;2023-11-19T05:55:35;27.45;;;4.93;;
61393;SDS011;48555;50.952;-0.120;2023-11-19T05:58:02;28.42;;;4.95;;
61393;SDS011;48555;50.952;-0.120;2023-11-19T06:00:29;24.20;;;4.90;;
61393;SDS011;48555;50.952;-0.120;2023-11-19T06:02:55;21.60;;;4.32;;
61393;SDS011;48555;50.952;-0.120;2023-11-19T06:05:21;28.08;;;4.85;;
61393;SDS011;48555;50.952;-0.120;2023-11-19T06:07:46;31.73;;;4.45;;
61393;SDS011;48555;50.952;-0.120;2023-11-19T06:10:11;24.00;;;5.30;;
61393;SDS011;48555;50.952;-0.120;2023-11-19T06:12:39;28.73;;;4.38;;
61393;SDS011;48555;50.952;-0.120;2023-11-19T06:15:06;27.70;;;4.10;;
61393;SDS011;48555;50.952;-0.120;2023-11-19T06:17:33;25.17;;;3.92;;
61393;SDS011;48555;50.952;-0.120;2023-11-19T06:19:59;22.85;;;4.30;;
61393;SDS011;48555;50.952;-0.120;2023-11-19T06:22:24;31.95;;;4.32;;
61393;SDS011;48555;50.952;-0.120;2023-11-19T06:24:50;25.90;;;4.50;;
61393;SDS011;48555;50.952;-0.120;2023-11-19T06:27:15;23.90;;;4.85;;
61393;SDS011;48555;50.952;-0.120;2023-11-19T06:29:40;24.88;;;4.55;;
61393;SDS011;48555;50.952;-0.120;2023-11-19T06:32:06;32.92;;;4.38;;
61393;SDS011;48555;50.952;-0.120;2023-11-19T06:34:33;27.05;;;4.70;;
61393;SDS011;48555;50.952;-0.120;2023-11-19T06:36:59;29.80;;;5.80;;
61393;SDS011;48555;50.952;-0.120;2023-11-19T06:39:24;27.05;;;4.95;;
61393;SDS011;48555;50.952;-0.120;2023-11-19T06:41:49;25.92;;;4.53;;
61393;SDS011;48555;50.952;-0.120;2023-11-19T06:44:15;28.40;;;5.28;;
61393;SDS011;48555;50.952;-0.120;2023-11-19T06:46:40;27.77;;;5.57;;
61393;SDS011;48555;50.952;-0.120;2023-11-19T06:49:05;24.02;;;5.35;;
61393;SDS011;48555;50.952;-0.120;2023-11-19T06:51:33;35.50;;;5.38;;
61393;SDS011;48555;50.952;-0.120;2023-11-19T06:53:58;23.27;;;5.18;;
61393;SDS011;48555;50.952;-0.120;2023-11-19T06:56:24;22.70;;;3.80;;
61393;SDS011;48555;50.952;-0.120;2023-11-19T06:58:50;21.27;;;3.50;;
61393;SDS011;48555;50.952;-0.120;2023-11-19T07:01:16;22.60;;;4.53;;
61393;SDS011;48555;50.952;-0.120;2023-11-19T07:03:43;19.10;;;3.83;;
61393;SDS011;48555;50.952;-0.120;2023-11-19T07:06:09;22.05;;;4.35;;
61393;SDS011;48555;50.952;-0.120;2023-11-19T07:08:35;23.48;;;3.17;;
61393;SDS011;48555;50.952;-0.120;2023-11-19T07:11:01;21.42;;;3.60;;
61393;SDS011;48555;50.952;-0.120;2023-11-19T07:13:28;27.45;;;4.50;;
61393;SDS011;48555;50.952;-0.120;2023-11-19T07:15:55;20.10;;;3.72;;
61393;SDS011;48555;50.952;-0.120;2023-11-19T07:18:21;27.27;;;4.45;;
61393;SDS011;48555;50.952;-0.120;2023-11-19T07:20:49;27.52;;;4.85;;
61393;SDS011;48555;50.952;-0.120;2023-11-19T07:23:14;26.65;;;4.50;;
61393;SDS011;48555;50.952;-0.120;2023-11-19T07:25:42;21.30;;;4.10;;
61393;SDS011;48555;50.952;-0.120;2023-11-19T07:28:08;20.73;;;4.20;;
61393;SDS011;48555;50.952;-0.120;2023-11-19T07:30:34;25.42;;;4.55;;
61393;SDS011;48555;50.952;-0.120;2023-11-19T07:33:00;28.10;;;5.22;;
61393;SDS011;48555;50.952;-0.120;2023-11-19T07:35:25;20.70;;;4.25;;
61393;SDS011;48555;50.952;-0.120;2023-11-19T07:37:51;25.30;;;4.40;;
61393;SDS011;48555;50.952;-0.120;2023-11-19T07:40:16;24.25;;;4.25;;
61393;SDS011;48555;50.952;-0.120;2023-11-19T07:42:41;22.17;;;4.45;;
61393;SDS011;48555;50.952;-0.120;2023-11-19T07:45:07;17.52;;;3.60;;
61393;SDS011;48555;50.952;-0.120;2023-11-19T07:47:32;30.67;;;4.68;;
61393;SDS011;48555;50.952;-0.120;2023-11-19T07:49:58;25.05;;;4.47;;
61393;SDS011;48555;50.952;-0.120;2023-11-19T07:52:23;26.08;;;4.82;;
61393;SDS011;48555;50.952;-0.120;2023-11-19T07:54:48;24.73;;;4.38;;
61393;SDS011;48555;50.952;-0.120;2023-11-19T07:57:14;22.08;;;4.82;;
61393;SDS011;48555;50.952;-0.120;2023-11-19T07:59:39;20.50;;;4.15;;
61393;SDS011;48555;50.952;-0.120;2023-11-19T08:02:05;29.48;;;4.85;;
61393;SDS011;48555;50.952;-0.120;2023-11-19T08:04:30;26.30;;;4.47;;
61393;SDS011;48555;50.952;-0.120;2023-11-19T08:06:55;27.17;;;4.70;;
61393;SDS011;48555;50.952;-0.120;2023-11-19T08:09:21;24.92;;;4.85;;
61393;SDS011;48555;50.952;-0.120;2023-11-19T08:11:48;26.17;;;5.05;;
61393;SDS011;48555;50.952;-0.120;2023-11-19T08:14:13;21.83;;;3.78;;
61393;SDS011;48555;50.952;-0.120;2023-11-19T08:16:39;24.92;;;5.22;;
61393;SDS011;48555;50.952;-0.120;2023-11-19T08:19:04;24.42;;;4.43;;
61393;SDS011;48555;50.952;-0.120;2023-11-19T08:21:30;19.50;;;3.70;;
61393;SDS011;48555;50.952;-0.120;2023-11-19T08:23:55;25.08;;;4.82;;
61393;SDS011;48555;50.952;-0.120;2023-11-19T08:26:21;26.20;;;4.43;;
61393;SDS011;48555;50.952;-0.120;2023-11-19T08:28:46;23.92;;;4.43;;
61393;SDS011;48555;50.952;-0.120;2023-11-19T08:31:12;19.88;;;4.85;;
61393;SDS011;48555;50.952;-0.120;2023-11-19T08:33:37;25.20;;;4.38;;
61393;SDS011;48555;50.952;-0.120;2023-11-19T08:36:03;21.08;;;3.80;;
61393;SDS011;48555;50.952;-0.120;2023-11-19T08:38:29;21.15;;;4.13;;
61393;SDS011;48555;50.952;-0.120;2023-11-19T08:40:55;27.90;;;4.32;;
61393;SDS011;48555;50.952;-0.120;2023-11-19T08:43:25;28.23;;;5.40;;
61393;SDS011;48555;50.952;-0.120;2023-11-19T08:45:51;28.60;;;4.93;;
61393;SDS011;48555;50.952;-0.120;2023-11-19T08:48:16;22.40;;;4.05;;
61393;SDS011;48555;50.952;-0.120;2023-11-19T08:50:42;24.88;;;4.45;;
61393;SDS011;48555;50.952;-0.120;2023-11-19T08:53:07;21.77;;;4.05;;
61393;SDS011;48555;50.952;-0.120;2023-11-19T08:55:32;22.67;;;5.05;;
61393;SDS011;48555;50.952;-0.120;2023-11-19T08:57:57;25.00;;;4.03;;
61393;SDS011;48555;50.952;-0.120;2023-11-19T09:00:23;18.63;;;3.53;;
61393;SDS011;48555;50.952;-0.120;2023-11-19T09:02:48;22.33;;;3.78;;
61393;SDS011;48555;50.952;-0.120;2023-11-19T09:05:14;22.00;;;4.10;;
61393;SDS011;48555;50.952;-0.120;2023-11-19T09:07:39;21.52;;;3.90;;
61393;SDS011;48555;50.952;-0.120;2023-11-19T09:10:04;21.15;;;4.38;;
61393;SDS011;48555;50.952;-0.120;2023-11-19T09:12:30;25.88;;;4.25;;
61393;SDS011;48555;50.952;-0.120;2023-11-19T09:14:56;27.02;;;4.90;;
61393;SDS011;48555;50.952;-0.120;2023-11-19T09:17:21;25.67;;;4.88;;
61393;SDS011;48555;50.952;-0.120;2023-11-19T09:19:46;23.58;;;4.38;;
61393;SDS011;48555;50.952;-0.120;2023-11-19T09:22:12;29.38;;;4.88;;
61393;SDS011;48555;50.952;-0.120;2023-11-19T09:24:37;25.48;;;4.15;;
61393;SDS011;48555;50.952;-0.120;2023-11-19T09:27:03;25.38;;;4.30;;
61393;SDS011;48555;50.952;-0.120;2023-11-19T09:29:31;24.67;;;3.97;;
61393;SDS011;48555;50.952;-0.120;2023-11-19T09:31:56;23.10;;;4.95;;
61393;SDS011;48555;50.952;-0.120;2023-11-19T09:34:22;17.77;;;3.70;;
61393;SDS011;48555;50.952;-0.120;2023-11-19T09:36:47;23.13;;;4.30;;
61393;SDS011;48555;50.952;-0.120;2023-11-19T09:39:12;20.52;;;4.18;;
61393;SDS011;48555;50.952;-0.120;2023-11-19T09:41:43;24.48;;;4.20;;
61393;SDS011;48555;50.952;-0.120;2023-11-19T09:44:10;20.15;;;4.20;;
61393;SDS011;48555;50.952;-0.120;2023-11-19T09:46:36;26.35;;;4.50;;
61393;SDS011;48555;50.952;-0.120;2023-11-19T09:49:03;21.83;;;4.28;;
61393;SDS011;48555;50.952;-0.120;2023-11-19T09:51:29;21.45;;;4.13;;
61393;SDS011;48555;50.952;-0.120;2023-11-19T09:53:55;20.05;;;4.68;;
61393;SDS011;48555;50.952;-0.120;2023-11-19T09:56:21;21.73;;;4.25;;
61393;SDS011;48555;50.952;-0.120;2023-11-19T09:58:47;19.30;;;3.70;;
61393;SDS011;48555;50.952;-0.120;2023-11-19T10:01:13;23.48;;;5.10;;
61393;SDS011;48555;50.952;-0.120;2023-11-19T10:03:39;22.92;;;3.95;;
61393;SDS011;48555;50.952;-0.120;2023-11-19T10:06:08;22.25;;;4.47;;
61393;SDS011;48555;50.952;-0.120;2023-11-19T10:08:38;20.98;;;4.10;;
61393;SDS011;48555;50.952;-0.120;2023-11-19T10:11:06;23.90;;;4.03;;
61393;SDS011;48555;50.952;-0.120;2023-11-19T10:13:35;17.73;;;4.13;;
61393;SDS011;48555;50.952;-0.120;2023-11-19T10:16:10;16.42;;;4.10;;
61393;SDS011;48555;50.952;-0.120;2023-11-19T10:18:38;17.00;;;3.25;;
61393;SDS011;48555;50.952;-0.120;2023-11-19T10:21:10;18.20;;;3.75;;
61393;SDS011;48555;50.952;-0.120;2023-11-19T10:24:02;19.67;;;4.20;;
61393;SDS011;48555;50.952;-0.120;2023-11-19T10:26:27;20.90;;;3.50;;
61393;SDS011;48555;50.952;-0.120;2023-11-19T10:28:52;16.67;;;3.45;;
61393;SDS011;48555;50.952;-0.120;2023-11-19T10:31:19;21.00;;;4.20;;
61393;SDS011;48555;50.952;-0.120;2023-11-19T10:36:15;22.30;;;3.97;;
61393;SDS011;48555;50.952;-0.120;2023-11-19T10:38:40;21.40;;;4.78;;
61393;SDS011;48555;50.952;-0.120;2023-11-19T10:41:26;20.83;;;4.50;;
61393;SDS011;48555;50.952;-0.120;2023-11-19T10:43:55;21.23;;;4.30;;
61393;SDS011;48555;50.952;-0.120;2023-11-19T10:46:21;18.77;;;4.25;;
61393;SDS011;48555;50.952;-0.120;2023-11-19T10:48:48;20.42;;;3.83;;
61393;SDS011;48555;50.952;-0.120;2023-11-19T10:51:14;20.83;;;4.20;;
61393;SDS011;48555;50.952;-0.120;2023-11-19T10:53:46;18.30;;;4.10;;
61393;SDS011;48555;50.952;-0.120;2023-11-19T10:56:13;17.83;;;3.60;;
61393;SDS011;48555;50.952;-0.120;2023-11-19T10:58:44;21.60;;;4.00;;
61393;SDS011;48555;50.952;-0.120;2023-11-19T11:01:13;17.65;;;3.53;;
61393;SDS011;48555;50.952;-0.120;2023-11-19T11:03:45;21.00;;;3.60;;
61393;SDS011;48555;50.952;-0.120;2023-11-19T11:06:11;18.58;;;4.10;;
61393;SDS011;48555;50.952;-0.120;2023-11-19T11:08:38;17.80;;;4.00;;
61393;SDS011;48555;50.952;-0.120;2023-11-19T11:11:04;20.38;;;4.18;;
61393;SDS011;48555;50.952;-0.120;2023-11-19T11:13:31;23.90;;;3.85;;
61393;SDS011;48555;50.952;-0.120;2023-11-19T11:15:57;16.65;;;4.00;;
61393;SDS011;48555;50.952;-0.120;2023-11-19T11:18:23;17.33;;;3.80;;
61393;SDS011;48555;50.952;-0.120;2023-11-19T11:20:50;20.30;;;3.40;;
61393;SDS011;48555;50.952;-0.120;2023-11-19T11:29:26;16.30;;;3.38;;
61393;SDS011;48555;50.952;-0.120;2023-11-19T11:36:53;18.95;;;3.75;;
61393;SDS011;48555;50.952;-0.120;2023-11-19T11:39:24;14.10;;;3.25;;
61393;SDS011;48555;50.952;-0.120;2023-11-19T11:42:30;20.95;;;4.43;;
61393;SDS011;48555;50.952;-0.120;2023-11-19T11:45:03;24.50;;;4.22;;
61393;SDS011;48555;50.952;-0.120;2023-11-19T11:50:10;14.27;;;3.92;;
61393;SDS011;48555;50.952;-0.120;2023-11-19T11:55:24;19.00;;;3.08;;
61393;SDS011;48555;50.952;-0.120;2023-11-19T11:57:53;16.60;;;3.25;;
61393;SDS011;48555;50.952;-0.120;2023-11-19T12:00:22;18.10;;;3.35;;
61393;SDS011;48555;50.952;-0.120;2023-11-19T12:02:52;13.27;;;2.85;;
61393;SDS011;48555;50.952;-0.120;2023-11-19T12:05:20;15.70;;;2.97;;
61393;SDS011;48555;50.952;-0.120;2023-11-19T12:10:46;18.02;;;4.05;;
61393;SDS011;48555;50.952;-0.120;2023-11-19T12:13:15;13.88;;;3.17;;
61393;SDS011;48555;50.952;-0.120;2023-11-19T12:18:30;18.33;;;3.38;;
61393;SDS011;48555;50.952;-0.120;2023-11-19T12:20:57;15.73;;;3.33;;
61393;SDS011;48555;50.952;-0.120;2023-11-19T12:23:25;15.30;;;2.95;;
61393;SDS011;48555;50.952;-0.120;2023-11-19T12:25:54;19.95;;;3.28;;
61393;SDS011;48555;50.952;-0.120;2023-11-19T12:28:20;18.75;;;3.05;;
61393;SDS011;48555;50.952;-0.120;2023-11-19T12:30:45;16.08;;;2.97;;
61393;SDS011;48555;50.952;-0.120;2023-11-19T12:33:12;19.83;;;3.72;;
61393;SDS011;48555;50.952;-0.120;2023-11-19T12:35:39;18.45;;;3.60;;
61393;SDS011;48555;50.952;-0.120;2023-11-19T12:38:05;17.20;;;3.55;;
61393;SDS011;48555;50.952;-0.120;2023-11-19T12:40:31;16.85;;;3.33;;
61393;SDS011;48555;50.952;-0.120;2023-11-19T12:42:56;19.15;;;4.00;;
61393;SDS011;48555;50.952;-0.120;2023-11-19T12:45:22;17.73;;;3.85;;
61393;SDS011;48555;50.952;-0.120;2023-11-19T12:48:03;18.80;;;3.45;;
61393;SDS011;48555;50.952;-0.120;2023-11-19T12:50:29;20.05;;;4.47;;
61393;SDS011;48555;50.952;-0.120;2023-11-19T12:53:16;18.75;;;3.58;;
61393;SDS011;48555;50.952;-0.120;2023-11-19T12:55:41;19.67;;;3.95;;
61393;SDS011;48555;50.952;-0.120;2023-11-19T12:58:06;16.88;;;3.05;;
61393;SDS011;48555;50.952;-0.120;2023-11-19T13:00:32;21.30;;;4.60;;
61393;SDS011;48555;50.952;-0.120;2023-11-19T13:02:57;20.98;;;4.00;;
61393;SDS011;48555;50.952;-0.120;2023-11-19T13:05:25;20.52;;;3.97;;
61393;SDS011;48555;50.952;-0.120;2023-11-19T13:13:31;17.38;;;4.13;;
61393;SDS011;48555;50.952;-0.120;2023-11-19T13:16:03;22.75;;;3.83;;
61393;SDS011;48555;50.952;-0.120;2023-11-19T13:18:33;19.65;;;3.90;;
61393;SDS011;48555;50.952;-0.120;2023-11-19T13:20:59;20.52;;;3.58;;
61393;SDS011;48555;50.952;-0.120;2023-11-19T13:23:25;12.93;;;3.10;;
61393;SDS011;48555;50.952;-0.120;2023-11-19T13:25:50;14.02;;;3.30;;
61393;SDS011;48555;50.952;-0.120;2023-11-19T13:28:15;14.27;;;2.65;;
61393;SDS011;48555;50.952;-0.120;2023-11-19T13:30:41;15.57;;;2.67;;
61393;SDS011;48555;50.952;-0.120;2023-11-19T13:33:06;17.33;;;3.30;;
61393;SDS011;48555;50.952;-0.120;2023-11-19T13:35:31;15.50;;;3.30;;
61393;SDS011;48555;50.952;-0.120;2023-11-19T13:37:57;14.13;;;3.20;;
61393;SDS011;48555;50.952;-0.120;2023-11-19T13:40:23;14.57;;;3.03;;
61393;SDS011;48555;50.952;-0.120;2023-11-19T13:42:49;12.23;;;2.50;;
61393;SDS011;48555;50.952;-0.120;2023-11-19T13:45:15;17.42;;;3.08;;
61393;SDS011;48555;50.952;-0.120;2023-11-19T13:47:44;12.93;;;2.90;;
61393;SDS011;48555;50.952;-0.120;2023-11-19T13:50:10;17.70;;;3.40;;
61393;SDS011;48555;50.952;-0.120;2023-11-19T13:52:37;17.08;;;3.22;;
61393;SDS011;48555;50.952;-0.120;2023-11-19T13:55:04;15.80;;;3.20;;
61393;SDS011;48555;50.952;-0.120;2023-11-19T13:57:40;18.75;;;3.53;;
61393;SDS011;48555;50.952;-0.120;2023-11-19T14:00:07;12.43;;;3.13;;
61393;SDS011;48555;50.952;-0.120;2023-11-19T14:02:44;18.17;;;3.65;;
61393;SDS011;48555;50.952;-0.120;2023-11-19T14:05:13;16.48;;;3.42;;
61393;SDS011;48555;50.952;-0.120;2023-11-19T14:07:40;15.63;;;2.95;;
61393;SDS011;48555;50.952;-0.120;2023-11-19T14:10:07;23.42;;;4.15;;
61393;SDS011;48555;50.952;-0.120;2023-11-19T14:12:39;15.27;;;3.05;;
61393;SDS011;48555;50.952;-0.120;2023-11-19T14:15:05;20.58;;;4.22;;
61393;SDS011;48555;50.952;-0.120;2023-11-19T14:17:31;15.30;;;3.33;;
61393;SDS011;48555;50.952;-0.120;2023-11-19T14:19:57;18.85;;;3.47;;
61393;SDS011;48555;50.952;-0.120;2023-11-19T14:22:22;17.70;;;3.65;;
61393;SDS011;48555;50.952;-0.120;2023-11-19T14:24:48;13.30;;;2.90;;
61393;SDS011;48555;50.952;-0.120;2023-11-19T14:27:13;17.90;;;3.30;;
61393;SDS011;48555;50.952;-0.120;2023-11-19T14:29:38;19.10;;;3.58;;
61393;SDS011;48555;50.952;-0.120;2023-11-19T14:32:05;15.07;;;3.50;;
61393;SDS011;48555;50.952;-0.120;2023-11-19T14:34:31;17.35;;;3.67;;
61393;SDS011;48555;50.952;-0.120;2023-11-19T14:36:57;16.85;;;3.45;;
61393;SDS011;48555;50.952;-0.120;2023-11-19T14:39:22;13.25;;;3.03;;
61393;SDS011;48555;50.952;-0.120;2023-11-19T14:41:48;16.08;;;3.05;;
61393;SDS011;48555;50.952;-0.120;2023-11-19T14:44:14;21.23;;;3.90;;
61393;SDS011;48555;50.952;-0.120;2023-11-19T14:46:40;18.40;;;3.50;;
61393;SDS011;48555;50.952;-0.120;2023-11-19T14:49:05;18.70;;;3.40;;